Elk City, Idaho
Current Conditions -  °F | °C
As of 8:15 PM on Tuesday 21 Oct 2014 (Local Time) from KGIC Reporting Station
Broken Clouds Broken Clouds  
Wind Chill:   Ceiling: 7000
Heat Index:   Visibility: 10mi
Dew Point:   Wind: 6mph
Humidity: 77%   Direction: 130°SE
Pressure: 30.07"   Gusts: NA
Location:  45.83°N, 115.44°W
Report Text: KGIC 220315Z AUTO 13005KT 10SM BKN070 07/03 A3007 RMK AO1 T00660029
Loading
Personal Weather Stations






























Interactive Weather Map
Tropical Storm Tracking
New forecast layout! Learn more

10-Day Weather Forecast

Advertisements
Track Severe Weather on mobile